sensor_id;sensor_type;location;lat;lon;timestamp;temperature;humidity
36280;DHT22;22317;47.936;12.742;2023-08-24T00:01:32;21.00;59.10
36280;DHT22;22317;47.936;12.742;2023-08-24T00:03:58;21.10;59.20
36280;DHT22;22317;47.936;12.742;2023-08-24T00:06:24;21.00;59.00
36280;DHT22;22317;47.936;12.742;2023-08-24T00:08:50;21.00;59.00
36280;DHT22;22317;47.936;12.742;2023-08-24T00:11:15;20.90;59.00
36280;DHT22;22317;47.936;12.742;2023-08-24T00:13:42;20.90;59.00
36280;DHT22;22317;47.936;12.742;2023-08-24T00:16:17;20.80;59.20
36280;DHT22;22317;47.936;12.742;2023-08-24T00:18:43;20.80;59.20
36280;DHT22;22317;47.936;12.742;2023-08-24T00:21:08;20.80;59.20
36280;DHT22;22317;47.936;12.742;2023-08-24T00:23:34;20.80;59.30
36280;DHT22;22317;47.936;12.742;2023-08-24T00:26:00;20.80;59.30
36280;DHT22;22317;47.936;12.742;2023-08-24T00:28:26;20.70;59.30
36280;DHT22;22317;47.936;12.742;2023-08-24T00:30:53;20.80;59.50
36280;DHT22;22317;47.936;12.742;2023-08-24T00:33:18;20.70;59.50
36280;DHT22;22317;47.936;12.742;2023-08-24T00:35:45;20.70;59.50
36280;DHT22;22317;47.936;12.742;2023-08-24T00:38:10;20.70;59.60
36280;DHT22;22317;47.936;12.742;2023-08-24T00:40:36;20.70;59.70
36280;DHT22;22317;47.936;12.742;2023-08-24T00:43:04;20.70;59.60
36280;DHT22;22317;47.936;12.742;2023-08-24T00:45:30;20.70;59.50
36280;DHT22;22317;47.936;12.742;2023-08-24T00:47:58;20.70;59.60
36280;DHT22;22317;47.936;12.742;2023-08-24T00:50:24;20.60;59.60
36280;DHT22;22317;47.936;12.742;2023-08-24T00:52:50;20.60;59.60
36280;DHT22;22317;47.936;12.742;2023-08-24T00:55:19;20.50;59.60
36280;DHT22;22317;47.936;12.742;2023-08-24T00:57:45;20.50;59.80
36280;DHT22;22317;47.936;12.742;2023-08-24T01:00:12;20.50;59.80
36280;DHT22;22317;47.936;12.742;2023-08-24T01:02:39;20.50;59.90
36280;DHT22;22317;47.936;12.742;2023-08-24T01:05:05;20.40;59.90
36280;DHT22;22317;47.936;12.742;2023-08-24T01:07:34;20.40;60.00
36280;DHT22;22317;47.936;12.742;2023-08-24T01:10:03;20.30;60.10
36280;DHT22;22317;47.936;12.742;2023-08-24T01:15:20;20.40;60.30
36280;DHT22;22317;47.936;12.742;2023-08-24T01:17:50;20.30;60.10
36280;DHT22;22317;47.936;12.742;2023-08-24T01:20:18;20.30;60.10
36280;DHT22;22317;47.936;12.742;2023-08-24T01:23:18;20.30;60.20
36280;DHT22;22317;47.936;12.742;2023-08-24T01:28:16;20.30;60.10
36280;DHT22;22317;47.936;12.742;2023-08-24T01:30:43;20.30;60.00
36280;DHT22;22317;47.936;12.742;2023-08-24T01:33:09;20.20;60.00
36280;DHT22;22317;47.936;12.742;2023-08-24T01:35:38;20.20;60.20
36280;DHT22;22317;47.936;12.742;2023-08-24T01:38:04;20.10;60.10
36280;DHT22;22317;47.936;12.742;2023-08-24T01:43:10;20.10;60.40
36280;DHT22;22317;47.936;12.742;2023-08-24T01:45:40;20.00;60.30
36280;DHT22;22317;47.936;12.742;2023-08-24T01:48:07;20.00;60.50
36280;DHT22;22317;47.936;12.742;2023-08-24T01:50:36;20.00;60.50
36280;DHT22;22317;47.936;12.742;2023-08-24T01:53:02;20.00;60.60
36280;DHT22;22317;47.936;12.742;2023-08-24T01:55:28;19.90;60.50
36280;DHT22;22317;47.936;12.742;2023-08-24T01:57:55;19.90;60.50
36280;DHT22;22317;47.936;12.742;2023-08-24T02:00:22;19.90;60.80
36280;DHT22;22317;47.936;12.742;2023-08-24T02:02:48;19.90;60.70
36280;DHT22;22317;47.936;12.742;2023-08-24T02:05:14;19.90;60.70
36280;DHT22;22317;47.936;12.742;2023-08-24T02:07:40;19.90;60.80
36280;DHT22;22317;47.936;12.742;2023-08-24T02:10:08;19.90;60.80
36280;DHT22;22317;47.936;12.742;2023-08-24T02:12:34;19.80;60.70
36280;DHT22;22317;47.936;12.742;2023-08-24T02:15:00;19.80;60.80
36280;DHT22;22317;47.936;12.742;2023-08-24T02:17:26;19.80;60.80
36280;DHT22;22317;47.936;12.742;2023-08-24T02:19:52;19.80;61.00
36280;DHT22;22317;47.936;12.742;2023-08-24T02:22:18;19.70;61.00
36280;DHT22;22317;47.936;12.742;2023-08-24T02:24:44;19.70;61.00
36280;DHT22;22317;47.936;12.742;2023-08-24T02:27:09;19.70;61.00
36280;DHT22;22317;47.936;12.742;2023-08-24T02:29:35;19.70;61.20
36280;DHT22;22317;47.936;12.742;2023-08-24T02:32:02;19.60;61.30
36280;DHT22;22317;47.936;12.742;2023-08-24T02:34:28;19.60;61.30
36280;DHT22;22317;47.936;12.742;2023-08-24T02:36:57;19.60;61.30
36280;DHT22;22317;47.936;12.742;2023-08-24T02:39:23;19.60;61.40
36280;DHT22;22317;47.936;12.742;2023-08-24T02:41:49;19.60;61.40
36280;DHT22;22317;47.936;12.742;2023-08-24T02:44:15;19.60;61.40
36280;DHT22;22317;47.936;12.742;2023-08-24T02:46:42;19.60;61.40
36280;DHT22;22317;47.936;12.742;2023-08-24T02:49:08;19.60;62.30
36280;DHT22;22317;47.936;12.742;2023-08-24T02:51:34;19.50;61.50
36280;DHT22;22317;47.936;12.742;2023-08-24T02:53:59;19.50;61.50
36280;DHT22;22317;47.936;12.742;2023-08-24T02:56:25;19.50;61.50
36280;DHT22;22317;47.936;12.742;2023-08-24T02:58:51;19.50;61.50
36280;DHT22;22317;47.936;12.742;2023-08-24T03:01:18;19.40;61.50
36280;DHT22;22317;47.936;12.742;2023-08-24T03:03:43;19.40;61.60
36280;DHT22;22317;47.936;12.742;2023-08-24T03:06:10;19.40;61.60
36280;DHT22;22317;47.936;12.742;2023-08-24T03:08:36;19.40;61.50
36280;DHT22;22317;47.936;12.742;2023-08-24T03:11:03;19.40;61.60
36280;DHT22;22317;47.936;12.742;2023-08-24T03:13:30;19.30;61.70
36280;DHT22;22317;47.936;12.742;2023-08-24T03:15:56;19.30;61.80
36280;DHT22;22317;47.936;12.742;2023-08-24T03:18:26;19.30;61.90
36280;DHT22;22317;47.936;12.742;2023-08-24T03:20:52;19.30;61.80
36280;DHT22;22317;47.936;12.742;2023-08-24T03:23:18;19.40;61.90
36280;DHT22;22317;47.936;12.742;2023-08-24T03:25:43;19.30;61.70
36280;DHT22;22317;47.936;12.742;2023-08-24T03:28:09;19.30;62.50
36280;DHT22;22317;47.936;12.742;2023-08-24T03:30:37;19.30;61.70
36280;DHT22;22317;47.936;12.742;2023-08-24T03:33:04;19.30;61.90
36280;DHT22;22317;47.936;12.742;2023-08-24T03:35:33;19.30;61.80
36280;DHT22;22317;47.936;12.742;2023-08-24T03:37:59;18.00;60.80
36280;DHT22;22317;47.936;12.742;2023-08-24T03:40:26;19.20;61.70
36280;DHT22;22317;47.936;12.742;2023-08-24T03:42:52;19.20;61.70
36280;DHT22;22317;47.936;12.742;2023-08-24T03:45:19;19.20;61.70
36280;DHT22;22317;47.936;12.742;2023-08-24T03:47:45;19.20;61.80
36280;DHT22;22317;47.936;12.742;2023-08-24T03:50:11;19.20;61.80
36280;DHT22;22317;47.936;12.742;2023-08-24T03:52:37;19.10;61.70
36280;DHT22;22317;47.936;12.742;2023-08-24T03:55:06;19.10;61.80
36280;DHT22;22317;47.936;12.742;2023-08-24T03:57:32;19.10;62.00
36280;DHT22;22317;47.936;12.742;2023-08-24T03:59:58;19.10;61.90
36280;DHT22;22317;47.936;12.742;2023-08-24T04:02:24;19.10;61.90
36280;DHT22;22317;47.936;12.742;2023-08-24T04:04:52;19.10;61.90
36280;DHT22;22317;47.936;12.742;2023-08-24T04:07:18;19.10;61.90
36280;DHT22;22317;47.936;12.742;2023-08-24T04:09:47;19.10;62.70
36280;DHT22;22317;47.936;12.742;2023-08-24T04:12:12;19.10;61.90
36280;DHT22;22317;47.936;12.742;2023-08-24T04:14:38;19.10;61.80
36280;DHT22;22317;47.936;12.742;2023-08-24T04:17:04;19.10;61.70
36280;DHT22;22317;47.936;12.742;2023-08-24T04:19:31;19.10;61.80
36280;DHT22;22317;47.936;12.742;2023-08-24T04:21:57;19.00;62.00
36280;DHT22;22317;47.936;12.742;2023-08-24T04:24:23;19.00;62.00
36280;DHT22;22317;47.936;12.742;2023-08-24T04:26:50;19.00;62.10
36280;DHT22;22317;47.936;12.742;2023-08-24T04:29:17;19.00;62.00
36280;DHT22;22317;47.936;12.742;2023-08-24T04:31:43;19.00;62.00
36280;DHT22;22317;47.936;12.742;2023-08-24T04:34:08;19.00;62.00
36280;DHT22;22317;47.936;12.742;2023-08-24T04:36:34;19.00;62.00
36280;DHT22;22317;47.936;12.742;2023-08-24T04:39:00;19.00;62.00
36280;DHT22;22317;47.936;12.742;2023-08-24T04:41:27;19.00;62.00
36280;DHT22;22317;47.936;12.742;2023-08-24T04:43:53;19.00;62.10
36280;DHT22;22317;47.936;12.742;2023-08-24T04:46:20;18.90;62.10
36280;DHT22;22317;47.936;12.742;2023-08-24T04:48:45;18.90;62.00
36280;DHT22;22317;47.936;12.742;2023-08-24T04:51:11;18.90;62.10
36280;DHT22;22317;47.936;12.742;2023-08-24T04:53:37;18.90;62.90
36280;DHT22;22317;47.936;12.742;2023-08-24T04:56:03;18.90;62.30
36280;DHT22;22317;47.936;12.742;2023-08-24T04:58:29;18.90;62.40
36280;DHT22;22317;47.936;12.742;2023-08-24T05:00:54;18.90;63.10
36280;DHT22;22317;47.936;12.742;2023-08-24T05:03:21;19.00;62.60
36280;DHT22;22317;47.936;12.742;2023-08-24T05:05:47;19.00;62.40
36280;DHT22;22317;47.936;12.742;2023-08-24T05:08:13;19.00;62.50
36280;DHT22;22317;47.936;12.742;2023-08-24T05:10:39;19.00;62.50
36280;DHT22;22317;47.936;12.742;2023-08-24T05:13:05;19.00;62.60
36280;DHT22;22317;47.936;12.742;2023-08-24T05:15:30;19.10;62.50
36280;DHT22;22317;47.936;12.742;2023-08-24T05:17:56;19.10;62.50
36280;DHT22;22317;47.936;12.742;2023-08-24T05:20:25;18.90;62.30
36280;DHT22;22317;47.936;12.742;2023-08-24T05:22:51;19.20;62.50
36280;DHT22;22317;47.936;12.742;2023-08-24T05:25:17;19.20;63.00
36280;DHT22;22317;47.936;12.742;2023-08-24T05:27:44;19.30;62.30
36280;DHT22;22317;47.936;12.742;2023-08-24T05:30:10;19.40;62.30
36280;DHT22;22317;47.936;12.742;2023-08-24T05:32:36;19.40;62.40
36280;DHT22;22317;47.936;12.742;2023-08-24T05:35:05;19.50;62.40
36280;DHT22;22317;47.936;12.742;2023-08-24T05:37:32;19.50;62.30
36280;DHT22;22317;47.936;12.742;2023-08-24T05:39:59;19.50;62.20
36280;DHT22;22317;47.936;12.742;2023-08-24T05:42:25;19.60;62.20
36280;DHT22;22317;47.936;12.742;2023-08-24T05:44:50;19.60;62.10
36280;DHT22;22317;47.936;12.742;2023-08-24T05:47:16;19.70;62.30
36280;DHT22;22317;47.936;12.742;2023-08-24T05:49:42;19.80;62.30
36280;DHT22;22317;47.936;12.742;2023-08-24T05:52:08;19.80;62.30
36280;DHT22;22317;47.936;12.742;2023-08-24T05:54:35;19.90;62.30
36280;DHT22;22317;47.936;12.742;2023-08-24T05:57:01;19.90;62.20
36280;DHT22;22317;47.936;12.742;2023-08-24T05:59:27;20.00;62.10
36280;DHT22;22317;47.936;12.742;2023-08-24T06:01:53;20.10;62.20
36280;DHT22;22317;47.936;12.742;2023-08-24T06:04:18;20.20;62.10
36280;DHT22;22317;47.936;12.742;2023-08-24T06:06:45;20.20;62.10
36280;DHT22;22317;47.936;12.742;2023-08-24T06:09:11;20.30;62.80
36280;DHT22;22317;47.936;12.742;2023-08-24T06:11:36;20.40;62.10
36280;DHT22;22317;47.936;12.742;2023-08-24T06:14:02;20.50;62.10
36280;DHT22;22317;47.936;12.742;2023-08-24T06:16:29;20.60;62.00
36280;DHT22;22317;47.936;12.742;2023-08-24T06:18:55;20.70;62.00
36280;DHT22;22317;47.936;12.742;2023-08-24T06:21:21;20.80;62.00
36280;DHT22;22317;47.936;12.742;2023-08-24T06:23:46;20.90;62.00
36280;DHT22;22317;47.936;12.742;2023-08-24T06:26:17;20.90;61.90
36280;DHT22;22317;47.936;12.742;2023-08-24T06:28:42;21.10;62.00
36280;DHT22;22317;47.936;12.742;2023-08-24T06:31:08;21.20;61.80
36280;DHT22;22317;47.936;12.742;2023-08-24T06:33:34;21.20;61.70
36280;DHT22;22317;47.936;12.742;2023-08-24T06:36:01;21.30;61.70
36280;DHT22;22317;47.936;12.742;2023-08-24T06:38:27;21.40;61.90
36280;DHT22;22317;47.936;12.742;2023-08-24T06:40:54;21.50;61.90
36280;DHT22;22317;47.936;12.742;2023-08-24T06:43:20;21.50;61.80
36280;DHT22;22317;47.936;12.742;2023-08-24T06:45:46;21.60;61.80
36280;DHT22;22317;47.936;12.742;2023-08-24T06:48:12;21.70;61.90
36280;DHT22;22317;47.936;12.742;2023-08-24T06:50:38;21.70;61.70
36280;DHT22;22317;47.936;12.742;2023-08-24T06:53:04;21.80;61.80
36280;DHT22;22317;47.936;12.742;2023-08-24T06:55:30;21.90;61.80
36280;DHT22;22317;47.936;12.742;2023-08-24T06:57:56;23.30;62.90
36280;DHT22;22317;47.936;12.742;2023-08-24T07:00:22;22.00;61.80
36280;DHT22;22317;47.936;12.742;2023-08-24T07:02:49;22.10;61.90
36280;DHT22;22317;47.936;12.742;2023-08-24T07:05:18;22.20;61.70
36280;DHT22;22317;47.936;12.742;2023-08-24T07:07:45;22.30;61.60
36280;DHT22;22317;47.936;12.742;2023-08-24T07:10:11;22.30;61.30
36280;DHT22;22317;47.936;12.742;2023-08-24T07:12:37;22.40;61.10
36280;DHT22;22317;47.936;12.742;2023-08-24T07:15:06;22.40;61.00
36280;DHT22;22317;47.936;12.742;2023-08-24T07:17:32;22.40;61.10
36280;DHT22;22317;47.936;12.742;2023-08-24T07:19:58;22.50;61.10
36280;DHT22;22317;47.936;12.742;2023-08-24T07:22:24;22.60;61.10
36280;DHT22;22317;47.936;12.742;2023-08-24T07:24:52;22.70;61.10
36280;DHT22;22317;47.936;12.742;2023-08-24T07:27:18;22.80;60.90
36280;DHT22;22317;47.936;12.742;2023-08-24T07:29:44;22.80;60.70
36280;DHT22;22317;47.936;12.742;2023-08-24T07:32:10;22.90;60.50
36280;DHT22;22317;47.936;12.742;2023-08-24T07:34:36;23.00;60.50
36280;DHT22;22317;47.936;12.742;2023-08-24T07:37:02;23.10;60.50
36280;DHT22;22317;47.936;12.742;2023-08-24T07:39:28;23.20;60.40
36280;DHT22;22317;47.936;12.742;2023-08-24T07:41:54;23.30;60.30
36280;DHT22;22317;47.936;12.742;2023-08-24T07:44:19;23.40;60.00
36280;DHT22;22317;47.936;12.742;2023-08-24T07:46:47;23.50;59.90
36280;DHT22;22317;47.936;12.742;2023-08-24T07:49:13;23.70;59.70
36280;DHT22;22317;47.936;12.742;2023-08-24T07:51:39;23.80;59.30
36280;DHT22;22317;47.936;12.742;2023-08-24T07:54:05;23.90;58.90
36280;DHT22;22317;47.936;12.742;2023-08-24T07:56:32;24.00;58.80
36280;DHT22;22317;47.936;12.742;2023-08-24T07:58:58;24.10;58.30
36280;DHT22;22317;47.936;12.742;2023-08-24T08:01:24;24.20;58.10
36280;DHT22;22317;47.936;12.742;2023-08-24T08:03:50;24.30;57.70
36280;DHT22;22317;47.936;12.742;2023-08-24T08:06:16;24.40;57.50
36280;DHT22;22317;47.936;12.742;2023-08-24T08:08:41;24.50;57.20
36280;DHT22;22317;47.936;12.742;2023-08-24T08:11:07;24.60;56.80
36280;DHT22;22317;47.936;12.742;2023-08-24T08:13:33;24.60;56.40
36280;DHT22;22317;47.936;12.742;2023-08-24T08:16:06;24.60;56.20
36280;DHT22;22317;47.936;12.742;2023-08-24T08:18:32;24.70;56.30
36280;DHT22;22317;47.936;12.742;2023-08-24T08:20:59;24.80;56.30
36280;DHT22;22317;47.936;12.742;2023-08-24T08:23:25;24.80;55.90
36280;DHT22;22317;47.936;12.742;2023-08-24T08:25:50;24.90;55.90
36280;DHT22;22317;47.936;12.742;2023-08-24T08:28:17;25.00;55.90
36280;DHT22;22317;47.936;12.742;2023-08-24T08:30:44;25.00;55.70
36280;DHT22;22317;47.936;12.742;2023-08-24T08:33:10;25.20;55.60
36280;DHT22;22317;47.936;12.742;2023-08-24T08:35:37;25.30;55.40
36280;DHT22;22317;47.936;12.742;2023-08-24T08:38:05;25.40;55.30
36280;DHT22;22317;47.936;12.742;2023-08-24T08:40:31;25.50;55.20
36280;DHT22;22317;47.936;12.742;2023-08-24T08:42:57;25.60;54.80
36280;DHT22;22317;47.936;12.742;2023-08-24T08:45:27;25.70;54.50
36280;DHT22;22317;47.936;12.742;2023-08-24T08:47:57;25.80;54.60
36280;DHT22;22317;47.936;12.742;2023-08-24T08:50:24;25.90;54.40
36280;DHT22;22317;47.936;12.742;2023-08-24T08:52:50;26.00;54.40
36280;DHT22;22317;47.936;12.742;2023-08-24T08:55:15;26.20;53.70
36280;DHT22;22317;47.936;12.742;2023-08-24T08:57:41;26.20;53.60
36280;DHT22;22317;47.936;12.742;2023-08-24T09:00:10;26.30;53.30
36280;DHT22;22317;47.936;12.742;2023-08-24T09:02:39;26.40;53.10
36280;DHT22;22317;47.936;12.742;2023-08-24T09:05:11;26.50;53.00
36280;DHT22;22317;47.936;12.742;2023-08-24T09:07:40;26.60;52.80
36280;DHT22;22317;47.936;12.742;2023-08-24T09:10:06;26.70;52.50
36280;DHT22;22317;47.936;12.742;2023-08-24T09:12:34;26.80;52.60
36280;DHT22;22317;47.936;12.742;2023-08-24T09:15:02;27.00;52.40
36280;DHT22;22317;47.936;12.742;2023-08-24T09:17:29;27.10;52.10
36280;DHT22;22317;47.936;12.742;2023-08-24T09:20:00;27.30;51.80
36280;DHT22;22317;47.936;12.742;2023-08-24T09:22:25;27.40;51.30
36280;DHT22;22317;47.936;12.742;2023-08-24T09:24:51;27.50;51.10
36280;DHT22;22317;47.936;12.742;2023-08-24T09:27:18;27.60;51.10
36280;DHT22;22317;47.936;12.742;2023-08-24T09:29:51;27.70;51.10
36280;DHT22;22317;47.936;12.742;2023-08-24T09:32:31;27.90;50.80
36280;DHT22;22317;47.936;12.742;2023-08-24T09:35:09;28.00;50.10
36280;DHT22;22317;47.936;12.742;2023-08-24T09:37:36;27.60;49.50
36280;DHT22;22317;47.936;12.742;2023-08-24T09:40:07;28.20;49.90
36280;DHT22;22317;47.936;12.742;2023-08-24T09:42:40;28.30;49.60
36280;DHT22;22317;47.936;12.742;2023-08-24T09:45:08;28.40;49.10
36280;DHT22;22317;47.936;12.742;2023-08-24T09:47:36;28.50;49.00
36280;DHT22;22317;47.936;12.742;2023-08-24T09:50:03;28.60;48.60
36280;DHT22;22317;47.936;12.742;2023-08-24T09:52:32;28.70;48.60
36280;DHT22;22317;47.936;12.742;2023-08-24T09:55:04;28.90;48.00
36280;DHT22;22317;47.936;12.742;2023-08-24T09:57:39;29.00;47.80
36280;DHT22;22317;47.936;12.742;2023-08-24T10:00:09;29.10;47.40
36280;DHT22;22317;47.936;12.742;2023-08-24T10:02:51;29.30;47.50
36280;DHT22;22317;47.936;12.742;2023-08-24T10:05:20;29.50;47.00
36280;DHT22;22317;47.936;12.742;2023-08-24T10:07:58;29.60;46.40
36280;DHT22;22317;47.936;12.742;2023-08-24T10:10:25;29.70;45.80
36280;DHT22;22317;47.936;12.742;2023-08-24T10:13:14;29.80;45.90
36280;DHT22;22317;47.936;12.742;2023-08-24T10:15:43;30.00;45.50
36280;DHT22;22317;47.936;12.742;2023-08-24T10:18:13;30.10;45.70
36280;DHT22;22317;47.936;12.742;2023-08-24T10:20:40;30.90;45.80
36280;DHT22;22317;47.936;12.742;2023-08-24T10:23:09;30.30;45.20
36280;DHT22;22317;47.936;12.742;2023-08-24T10:25:36;30.30;45.00
36280;DHT22;22317;47.936;12.742;2023-08-24T10:28:03;30.40;45.00
36280;DHT22;22317;47.936;12.742;2023-08-24T10:30:30;30.60;44.80
36280;DHT22;22317;47.936;12.742;2023-08-24T10:32:57;30.60;44.70
36280;DHT22;22317;47.936;12.742;2023-08-24T10:35:23;30.80;44.40
36280;DHT22;22317;47.936;12.742;2023-08-24T10:37:52;30.90;44.30
36280;DHT22;22317;47.936;12.742;2023-08-24T10:40:37;31.00;44.10
36280;DHT22;22317;47.936;12.742;2023-08-24T10:43:09;31.10;44.20
36280;DHT22;22317;47.936;12.742;2023-08-24T10:45:57;31.30;44.10
36280;DHT22;22317;47.936;12.742;2023-08-24T10:48:25;31.50;43.70
36280;DHT22;22317;47.936;12.742;2023-08-24T10:53:40;31.70;43.10
36280;DHT22;22317;47.936;12.742;2023-08-24T10:56:14;31.80;43.20
36280;DHT22;22317;47.936;12.742;2023-08-24T10:58:40;31.90;43.30
36280;DHT22;22317;47.936;12.742;2023-08-24T11:01:06;32.10;43.20
36280;DHT22;22317;47.936;12.742;2023-08-24T11:03:33;32.20;43.00
36280;DHT22;22317;47.936;12.742;2023-08-24T11:05:59;32.30;42.80
36280;DHT22;22317;47.936;12.742;2023-08-24T11:08:44;32.40;42.80
36280;DHT22;22317;47.936;12.742;2023-08-24T11:11:20;32.50;42.50
36280;DHT22;22317;47.936;12.742;2023-08-24T11:14:16;32.50;42.20
36280;DHT22;22317;47.936;12.742;2023-08-24T11:16:44;32.50;42.20
36280;DHT22;22317;47.936;12.742;2023-08-24T11:19:11;32.60;42.50
36280;DHT22;22317;47.936;12.742;2023-08-24T11:21:39;32.60;42.30
36280;DHT22;22317;47.936;12.742;2023-08-24T11:24:05;32.80;42.10
36280;DHT22;22317;47.936;12.742;2023-08-24T11:26:31;32.90;41.80
36280;DHT22;22317;47.936;12.742;2023-08-24T11:28:57;32.90;41.40
36280;DHT22;22317;47.936;12.742;2023-08-24T11:31:26;33.00;41.40
36280;DHT22;22317;47.936;12.742;2023-08-24T11:33:56;33.00;41.10
36280;DHT22;22317;47.936;12.742;2023-08-24T11:36:22;32.90;41.60
36280;DHT22;22317;47.936;12.742;2023-08-24T11:38:53;32.90;40.80
36280;DHT22;22317;47.936;12.742;2023-08-24T11:41:21;32.80;40.70
36280;DHT22;22317;47.936;12.742;2023-08-24T11:43:48;32.80;40.80
36280;DHT22;22317;47.936;12.742;2023-08-24T11:46:17;32.80;40.90
36280;DHT22;22317;47.936;12.742;2023-08-24T11:48:44;33.00;41.10
36280;DHT22;22317;47.936;12.742;2023-08-24T11:51:11;33.00;40.80
36280;DHT22;22317;47.936;12.742;2023-08-24T11:53:42;33.10;40.60
36280;DHT22;22317;47.936;12.742;2023-08-24T11:56:17;33.10;40.70
36280;DHT22;22317;47.936;12.742;2023-08-24T11:58:47;33.30;40.90
36280;DHT22;22317;47.936;12.742;2023-08-24T12:01:13;33.40;41.00
36280;DHT22;22317;47.936;12.742;2023-08-24T12:03:39;33.50;41.10
36280;DHT22;22317;47.936;12.742;2023-08-24T12:06:16;33.70;40.90
36280;DHT22;22317;47.936;12.742;2023-08-24T12:08:46;33.80;40.40
36280;DHT22;22317;47.936;12.742;2023-08-24T12:11:17;34.00;40.40
36280;DHT22;22317;47.936;12.742;2023-08-24T12:13:51;34.20;40.00
36280;DHT22;22317;47.936;12.742;2023-08-24T12:16:18;34.30;39.40
36280;DHT22;22317;47.936;12.742;2023-08-24T12:18:56;34.50;39.40
36280;DHT22;22317;47.936;12.742;2023-08-24T12:21:23;34.70;39.10
36280;DHT22;22317;47.936;12.742;2023-08-24T12:23:59;34.80;39.40
36280;DHT22;22317;47.936;12.742;2023-08-24T12:26:28;35.00;38.90
36280;DHT22;22317;47.936;12.742;2023-08-24T12:29:05;35.10;38.60
36280;DHT22;22317;47.936;12.742;2023-08-24T12:31:32;35.30;38.50
36280;DHT22;22317;47.936;12.742;2023-08-24T12:34:03;35.50;38.30
36280;DHT22;22317;47.936;12.742;2023-08-24T12:36:30;35.90;37.80
36280;DHT22;22317;47.936;12.742;2023-08-24T12:38:58;36.10;37.90
36280;DHT22;22317;47.936;12.742;2023-08-24T12:41:23;36.50;38.00
36280;DHT22;22317;47.936;12.742;2023-08-24T12:43:50;36.80;36.60
36280;DHT22;22317;47.936;12.742;2023-08-24T12:46:16;37.20;35.90
36280;DHT22;22317;47.936;12.742;2023-08-24T12:48:42;37.50;35.20
36280;DHT22;22317;47.936;12.742;2023-08-24T12:51:08;37.90;34.60
36280;DHT22;22317;47.936;12.742;2023-08-24T12:53:34;38.40;34.30
36280;DHT22;22317;47.936;12.742;2023-08-24T12:55:59;38.80;33.50
36280;DHT22;22317;47.936;12.742;2023-08-24T12:58:25;39.20;33.10
36280;DHT22;22317;47.936;12.742;2023-08-24T13:00:51;39.70;32.70
36280;DHT22;22317;47.936;12.742;2023-08-24T13:03:16;40.20;32.70
36280;DHT22;22317;47.936;12.742;2023-08-24T13:05:42;40.70;31.30
36280;DHT22;22317;47.936;12.742;2023-08-24T13:08:08;41.20;30.30
36280;DHT22;22317;47.936;12.742;2023-08-24T13:10:34;41.50;29.80
36280;DHT22;22317;47.936;12.742;2023-08-24T13:13:02;41.90;29.60
36280;DHT22;22317;47.936;12.742;2023-08-24T13:15:28;42.40;28.90
36280;DHT22;22317;47.936;12.742;2023-08-24T13:17:54;42.70;28.30
36280;DHT22;22317;47.936;12.742;2023-08-24T13:20:20;43.10;27.90
36280;DHT22;22317;47.936;12.742;2023-08-24T13:22:46;43.50;27.40
36280;DHT22;22317;47.936;12.742;2023-08-24T13:25:11;43.90;26.90
36280;DHT22;22317;47.936;12.742;2023-08-24T13:27:37;44.40;26.90
36280;DHT22;22317;47.936;12.742;2023-08-24T13:30:03;44.80;26.60
36280;DHT22;22317;47.936;12.742;2023-08-24T13:32:29;45.10;26.20
36280;DHT22;22317;47.936;12.742;2023-08-24T13:34:55;45.60;25.80
36280;DHT22;22317;47.936;12.742;2023-08-24T13:37:22;45.90;25.10
36280;DHT22;22317;47.936;12.742;2023-08-24T13:39:48;46.50;25.00
36280;DHT22;22317;47.936;12.742;2023-08-24T13:42:14;46.90;24.60
36280;DHT22;22317;47.936;12.742;2023-08-24T13:44:40;47.30;24.30
36280;DHT22;22317;47.936;12.742;2023-08-24T13:47:05;47.60;23.80
36280;DHT22;22317;47.936;12.742;2023-08-24T13:49:31;48.10;23.30
36280;DHT22;22317;47.936;12.742;2023-08-24T13:51:57;48.40;23.20
36280;DHT22;22317;47.936;12.742;2023-08-24T13:54:23;48.60;22.80
36280;DHT22;22317;47.936;12.742;2023-08-24T13:56:50;48.90;22.50
36280;DHT22;22317;47.936;12.742;2023-08-24T13:59:16;49.10;22.10
36280;DHT22;22317;47.936;12.742;2023-08-24T14:01:42;49.30;21.80
36280;DHT22;22317;47.936;12.742;2023-08-24T14:04:07;49.40;21.50
36280;DHT22;22317;47.936;12.742;2023-08-24T14:06:34;49.40;21.30
36280;DHT22;22317;47.936;12.742;2023-08-24T14:09:05;49.40;21.50
36280;DHT22;22317;47.936;12.742;2023-08-24T14:11:32;49.60;21.50
36280;DHT22;22317;47.936;12.742;2023-08-24T14:13:58;49.90;21.20
36280;DHT22;22317;47.936;12.742;2023-08-24T14:16:25;50.20;20.90
36280;DHT22;22317;47.936;12.742;2023-08-24T14:18:51;50.30;21.20
36280;DHT22;22317;47.936;12.742;2023-08-24T14:21:17;50.50;20.60
36280;DHT22;22317;47.936;12.742;2023-08-24T14:23:43;50.70;20.30
36280;DHT22;22317;47.936;12.742;2023-08-24T14:26:09;50.70;20.00
36280;DHT22;22317;47.936;12.742;2023-08-24T14:28:57;50.60;19.80
36280;DHT22;22317;47.936;12.742;2023-08-24T14:31:30;50.20;19.90
36280;DHT22;22317;47.936;12.742;2023-08-24T14:33:56;50.10;20.00
36280;DHT22;22317;47.936;12.742;2023-08-24T14:36:23;50.10;20.10
36280;DHT22;22317;47.936;12.742;2023-08-24T14:38:50;50.10;19.90
36280;DHT22;22317;47.936;12.742;2023-08-24T14:41:17;50.20;20.10
36280;DHT22;22317;47.936;12.742;2023-08-24T14:43:43;50.40;19.60
36280;DHT22;22317;47.936;12.742;2023-08-24T14:46:08;50.60;19.30
36280;DHT22;22317;47.936;12.742;2023-08-24T14:48:34;50.70;19.80
36280;DHT22;22317;47.936;12.742;2023-08-24T14:51:01;50.60;19.20
36280;DHT22;22317;47.936;12.742;2023-08-24T14:53:27;50.30;19.20
36280;DHT22;22317;47.936;12.742;2023-08-24T14:55:53;49.80;19.30
36280;DHT22;22317;47.936;12.742;2023-08-24T14:58:23;49.20;19.80
36280;DHT22;22317;47.936;12.742;2023-08-24T15:00:50;48.60;20.10
36280;DHT22;22317;47.936;12.742;2023-08-24T15:03:16;48.10;20.10
36280;DHT22;22317;47.936;12.742;2023-08-24T15:05:46;47.80;20.40
36280;DHT22;22317;47.936;12.742;2023-08-24T15:08:13;47.20;20.60
36280;DHT22;22317;47.936;12.742;2023-08-24T15:10:39;46.60;20.90
36280;DHT22;22317;47.936;12.742;2023-08-24T15:13:05;46.00;21.40
36280;DHT22;22317;47.936;12.742;2023-08-24T15:15:37;45.40;21.60
36280;DHT22;22317;47.936;12.742;2023-08-24T15:18:03;44.70;22.00
36280;DHT22;22317;47.936;12.742;2023-08-24T15:20:29;44.00;22.30
36280;DHT22;22317;47.936;12.742;2023-08-24T15:22:55;43.30;22.70
36280;DHT22;22317;47.936;12.742;2023-08-24T15:25:20;42.70;23.20
36280;DHT22;22317;47.936;12.742;2023-08-24T15:27:47;42.10;23.80